createdAt,value
2023-01-12T00:02:19.929Z,81.39
2023-01-12T00:04:48.008Z,81.71
2023-01-12T00:07:17.777Z,81.84
2023-01-12T00:09:45.929Z,82.05
2023-01-12T00:12:13.968Z,81.99
2023-01-12T00:14:42.036Z,81.99
2023-01-12T00:17:12.042Z,81.79
2023-01-12T00:19:40.260Z,81.50
2023-01-12T00:22:12.010Z,81.80
2023-01-12T00:24:45.397Z,82.14
2023-01-12T00:27:19.415Z,82.60
2023-01-12T00:29:49.840Z,82.66
2023-01-12T00:32:20.910Z,82.45
2023-01-12T00:34:49.351Z,82.34
2023-01-12T00:37:19.701Z,82.00
2023-01-12T00:40:00.751Z,82.01
2023-01-12T00:42:48.651Z,82.26
2023-01-12T00:45:22.717Z,82.16
2023-01-12T00:47:51.710Z,82.14
2023-01-12T00:50:19.980Z,82.96
2023-01-12T00:52:47.911Z,83.01
2023-01-12T00:55:15.895Z,82.80
2023-01-12T00:57:43.877Z,82.70
2023-01-12T01:00:12.327Z,82.77
2023-01-12T01:02:40.565Z,82.78
2023-01-12T01:05:09.186Z,82.72
2023-01-12T01:07:37.670Z,82.76
2023-01-12T01:10:06.086Z,82.63
2023-01-12T01:12:34.039Z,82.42
2023-01-12T01:15:02.120Z,82.42
2023-01-12T01:17:30.189Z,82.61
2023-01-12T01:19:58.072Z,82.51
2023-01-12T01:22:26.054Z,82.30
2023-01-12T01:24:54.510Z,82.24
2023-01-12T01:27:22.577Z,82.35
2023-01-12T01:29:50.551Z,82.35
2023-01-12T01:32:18.523Z,82.10
2023-01-12T01:34:47.846Z,82.47
2023-01-12T01:37:15.991Z,82.66
2023-01-12T01:39:44.904Z,82.47
2023-01-12T01:42:28.269Z,82.49
2023-01-12T01:45:01.095Z,82.49
2023-01-12T01:47:36.513Z,82.37
2023-01-12T01:50:15.018Z,82.59
2023-01-12T01:52:46.464Z,82.63
2023-01-12T01:55:25.215Z,82.52
2023-01-12T01:58:01.071Z,82.50
2023-01-12T02:00:29.554Z,82.24
2023-01-12T02:02:59.809Z,82.11
2023-01-12T02:05:28.983Z,82.27
2023-01-12T02:08:21.648Z,82.68
2023-01-12T02:10:52.373Z,82.77
2023-01-12T02:13:39.494Z,82.70
2023-01-12T02:16:23.222Z,82.65
2023-01-12T02:18:54.473Z,82.61
2023-01-12T02:21:58.801Z,82.40
2023-01-12T02:24:48.209Z,82.26
2023-01-12T02:27:34.344Z,82.20
2023-01-12T02:30:05.100Z,82.25
2023-01-12T02:32:59.081Z,82.40
2023-01-12T02:35:58.701Z,82.51
2023-01-12T02:39:03.287Z,82.70
2023-01-12T02:42:01.597Z,82.79
2023-01-12T02:44:48.928Z,82.91
2023-01-12T02:47:29.593Z,83.16
2023-01-12T02:50:00.834Z,83.09
2023-01-12T02:52:32.184Z,83.12
2023-01-12T02:55:02.192Z,83.27
2023-01-12T02:57:34.269Z,83.49
2023-01-12T03:00:05.718Z,83.51
2023-01-12T03:02:34.710Z,83.56
2023-01-12T03:05:02.916Z,83.64
2023-01-12T03:07:57.372Z,83.74
2023-01-12T03:10:25.350Z,84.05
2023-01-12T03:12:55.595Z,83.89
2023-01-12T03:15:25.282Z,83.64
2023-01-12T03:18:03.770Z,83.62
2023-01-12T03:20:35.259Z,83.63
2023-01-12T03:23:11.929Z,83.40
2023-01-12T03:25:44.413Z,82.59
2023-01-12T03:28:16.548Z,82.14
2023-01-12T03:30:54.675Z,82.26
2023-01-12T03:33:24.698Z,82.80
2023-01-12T03:36:08.019Z,83.18
2023-01-12T03:38:57.841Z,83.65
2023-01-12T03:42:09.972Z,84.14
2023-01-12T03:45:21.402Z,83.76
2023-01-12T03:47:57.623Z,83.58
2023-01-12T03:50:31.325Z,83.53
2023-01-12T03:53:02.320Z,83.55
2023-01-12T03:55:32.296Z,83.57
2023-01-12T03:58:01.009Z,83.60
2023-01-12T04:00:29.899Z,83.58
2023-01-12T04:03:12.034Z,83.85
2023-01-12T04:05:42.225Z,83.88
2023-01-12T04:08:12.850Z,84.01
2023-01-12T04:10:41.413Z,84.03
2023-01-12T04:13:09.506Z,83.99
2023-01-12T04:15:42.422Z,84.04
2023-01-12T04:18:11.856Z,83.97
2023-01-12T04:20:39.661Z,84.29
2023-01-12T04:23:07.862Z,84.81
2023-01-12T04:25:36.540Z,84.38
2023-01-12T04:28:04.863Z,84.26
2023-01-12T04:30:34.201Z,85.30
2023-01-12T04:33:09.358Z,85.12
2023-01-12T04:35:37.419Z,85.09
2023-01-12T04:38:08.962Z,85.09
2023-01-12T04:40:36.831Z,84.91
2023-01-12T04:43:07.999Z,85.20
2023-01-12T04:45:39.879Z,85.70
2023-01-12T04:48:13.384Z,85.62
2023-01-12T04:50:42.852Z,85.45
2023-01-12T04:53:13.109Z,86.07
2023-01-12T04:55:43.180Z,86.26
2023-01-12T04:58:11.903Z,85.77
2023-01-12T05:00:39.799Z,85.29
2023-01-12T05:03:11.090Z,85.25
2023-01-12T05:05:39.156Z,85.36
2023-01-12T05:08:27.873Z,85.60
2023-01-12T05:10:58.444Z,85.49
2023-01-12T05:13:28.876Z,85.54
2023-01-12T05:15:56.949Z,85.77
2023-01-12T05:18:26.901Z,85.99
2023-01-12T05:20:57.085Z,86.77
2023-01-12T05:23:24.967Z,86.60
2023-01-12T05:25:52.888Z,86.33
2023-01-12T05:28:20.909Z,86.67
2023-01-12T05:30:48.974Z,86.56
2023-01-12T05:33:17.142Z,87.02
2023-01-12T05:35:45.201Z,86.97
2023-01-12T05:38:13.478Z,86.89
2023-01-12T05:40:41.339Z,86.85
2023-01-12T05:43:31.951Z,87.01
2023-01-12T05:46:05.304Z,87.32
2023-01-12T05:48:33.505Z,87.05
2023-01-12T05:51:04.199Z,86.68
2023-01-12T05:53:33.212Z,86.40
2023-01-12T05:56:26.509Z,86.38
2023-01-12T05:58:58.700Z,86.42
2023-01-12T06:01:28.110Z,86.57
2023-01-12T06:03:56.788Z,86.57
2023-01-12T06:06:26.291Z,87.06
2023-01-12T06:08:54.905Z,87.21
2023-01-12T06:11:41.561Z,87.07
2023-01-12T06:14:10.408Z,86.84
2023-01-12T06:16:40.368Z,86.49
2023-01-12T06:19:12.259Z,86.51
2023-01-12T06:21:41.159Z,86.47
2023-01-12T06:24:09.569Z,86.38
2023-01-12T06:26:37.529Z,86.38
2023-01-12T06:29:07.172Z,86.36
2023-01-12T06:31:36.595Z,86.36
2023-01-12T06:34:04.968Z,86.33
2023-01-12T06:36:32.931Z,86.42
2023-01-12T06:39:00.870Z,86.43
2023-01-12T06:41:47.506Z,86.37
2023-01-12T06:44:15.475Z,86.33
2023-01-12T06:46:43.449Z,86.25
2023-01-12T06:49:11.559Z,86.13
2023-01-12T06:51:39.589Z,86.08
2023-01-12T06:54:07.800Z,86.20
2023-01-12T06:56:35.733Z,86.24
2023-01-12T06:59:03.598Z,86.39
2023-01-12T07:01:31.724Z,86.48
2023-01-12T07:03:59.854Z,86.45
2023-01-12T07:06:27.817Z,86.33
2023-01-12T07:08:55.999Z,86.67
2023-01-12T07:11:24.470Z,86.45
2023-01-12T07:13:52.756Z,86.46
2023-01-12T07:16:20.644Z,86.43
2023-01-12T07:18:48.687Z,86.42
2023-01-12T07:21:19.794Z,86.50
2023-01-12T07:23:47.892Z,86.75
2023-01-12T07:26:15.880Z,86.89
2023-01-12T07:28:43.861Z,86.82
2023-01-12T07:31:12.434Z,87.22
2023-01-12T07:33:40.617Z,87.28
2023-01-12T07:36:08.780Z,87.07
2023-01-12T07:38:37.956Z,86.99
2023-01-12T07:41:05.886Z,87.02
2023-01-12T07:43:34.222Z,86.85
2023-01-12T07:46:02.273Z,86.41
2023-01-12T07:48:30.924Z,86.59
2023-01-12T07:50:59.414Z,86.80
2023-01-12T07:53:27.533Z,86.81
2023-01-12T07:55:55.499Z,86.76
2023-01-12T07:58:23.454Z,86.91
2023-01-12T08:00:51.396Z,86.93
2023-01-12T08:03:19.859Z,87.09
2023-01-12T08:05:48.077Z,87.07
2023-01-12T08:08:16.169Z,86.87
2023-01-12T08:10:45.472Z,86.74
2023-01-12T08:13:13.411Z,87.01
2023-01-12T08:15:46.295Z,87.06
2023-01-12T08:18:24.011Z,86.85
2023-01-12T08:20:54.916Z,86.63
2023-01-12T08:23:28.420Z,86.37
2023-01-12T08:26:01.397Z,86.39
2023-01-12T08:28:41.189Z,86.40
2023-01-12T08:31:13.885Z,86.47
2023-01-12T08:33:43.562Z,86.48
2023-01-12T08:36:16.015Z,86.32
2023-01-12T08:38:44.325Z,86.04
2023-01-12T08:41:31.040Z,85.83
2023-01-12T08:44:11.177Z,85.57
2023-01-12T08:46:40.436Z,85.57
2023-01-12T08:49:11.475Z,85.55
2023-01-12T08:51:40.357Z,85.82
2023-01-12T08:54:10.450Z,85.74
2023-01-12T08:56:38.348Z,85.59
2023-01-12T08:59:06.790Z,85.54
2023-01-12T09:01:35.814Z,85.36
2023-01-12T09:04:04.171Z,85.24
2023-01-12T09:06:35.961Z,85.45
2023-01-12T09:09:05.910Z,85.43
2023-01-12T09:11:35.371Z,85.37
2023-01-12T09:14:04.219Z,85.35
2023-01-12T09:16:33.055Z,85.14
2023-01-12T09:19:01.211Z,85.28
2023-01-12T09:21:30.602Z,85.17
2023-01-12T09:23:58.813Z,85.12
2023-01-12T09:26:32.592Z,85.33
2023-01-12T09:29:04.089Z,85.22
2023-01-12T09:31:33.056Z,84.92
2023-01-12T09:34:01.817Z,85.04
2023-01-12T09:36:32.896Z,85.13
2023-01-12T09:39:04.381Z,85.26
2023-01-12T09:41:51.221Z,85.11
2023-01-12T09:44:40.764Z,85.12
2023-01-12T09:47:18.717Z,84.99
2023-01-12T09:50:07.981Z,84.81
2023-01-12T09:52:44.883Z,84.66
2023-01-12T09:55:17.341Z,84.39
2023-01-12T09:57:53.995Z,84.24
2023-01-12T10:00:23.033Z,84.24
2023-01-12T10:03:09.744Z,84.16
2023-01-12T10:05:49.163Z,84.20
2023-01-12T10:08:18.653Z,84.06
2023-01-12T10:11:02.298Z,84.06
2023-01-12T10:13:40.595Z,84.04
2023-01-12T10:16:19.610Z,84.03
2023-01-12T10:18:54.676Z,84.22
2023-01-12T10:21:23.962Z,84.50
2023-01-12T10:23:54.282Z,84.63
2023-01-12T10:26:38.070Z,84.69
2023-01-12T10:29:10.599Z,84.85
2023-01-12T10:31:38.586Z,84.87
2023-01-12T10:34:11.960Z,84.84
2023-01-12T10:36:45.158Z,85.02
2023-01-12T10:39:34.467Z,85.13
2023-01-12T10:42:36.351Z,85.08
2023-01-12T10:45:15.341Z,85.10
2023-01-12T10:47:45.343Z,85.16
2023-01-12T10:50:22.520Z,85.61
2023-01-12T10:52:56.254Z,85.94
2023-01-12T10:55:29.005Z,86.15
2023-01-12T10:57:57.384Z,86.00
2023-01-12T11:00:28.036Z,86.02
2023-01-12T11:02:56.564Z,86.12
2023-01-12T11:05:27.920Z,86.17
2023-01-12T11:07:56.211Z,86.08
2023-01-12T11:10:35.476Z,86.06
2023-01-12T11:13:05.851Z,86.22
2023-01-12T11:15:39.055Z,86.24
2023-01-12T11:18:36.856Z,86.21
2023-01-12T11:21:15.137Z,86.41
2023-01-12T11:23:54.436Z,86.51
2023-01-12T11:26:30.701Z,86.65
2023-01-12T11:29:27.708Z,86.77
2023-01-12T11:32:02.884Z,86.70
2023-01-12T11:34:39.008Z,86.87
2023-01-12T11:37:13.334Z,86.72
2023-01-12T11:39:43.972Z,86.65
2023-01-12T11:42:38.861Z,86.71
2023-01-12T11:45:20.777Z,86.40
2023-01-12T11:48:20.111Z,85.97
2023-01-12T11:50:50.524Z,85.82
2023-01-12T11:53:23.471Z,85.60
2023-01-12T11:56:16.832Z,85.28
2023-01-12T11:58:47.948Z,85.18
2023-01-12T12:01:30.329Z,85.11
2023-01-12T12:04:01.767Z,85.09
2023-01-12T12:06:38.639Z,84.96
2023-01-12T12:09:37.831Z,84.85
2023-01-12T12:12:22.170Z,84.61
2023-01-12T12:15:06.934Z,84.53
2023-01-12T12:17:39.265Z,84.29
2023-01-12T12:20:36.972Z,84.20
2023-01-12T12:23:29.945Z,84.66
2023-01-12T12:26:24.577Z,84.66
2023-01-12T12:29:17.079Z,84.41
2023-01-12T12:32:06.233Z,84.18
2023-01-12T12:34:34.099Z,84.11
2023-01-12T12:37:17.128Z,84.28
2023-01-12T12:39:54.732Z,84.14
2023-01-12T12:42:59.760Z,83.90
2023-01-12T12:45:51.798Z,83.81
2023-01-12T12:48:27.608Z,83.89
2023-01-12T12:51:04.522Z,83.95
2023-01-12T12:53:43.587Z,83.79
2023-01-12T12:56:15.722Z,83.81
2023-01-12T12:58:57.623Z,83.79
2023-01-12T13:01:29.129Z,83.71
2023-01-12T13:03:58.264Z,83.66
2023-01-12T13:06:33.894Z,83.66
2023-01-12T13:09:11.207Z,83.47
2023-01-12T13:11:57.475Z,83.46
2023-01-12T13:14:28.219Z,83.29
2023-01-12T13:17:23.862Z,83.33
2023-01-12T13:20:06.156Z,83.42
2023-01-12T13:22:39.663Z,83.28
2023-01-12T13:25:10.598Z,82.68
2023-01-12T13:28:00.360Z,82.73
2023-01-12T13:30:28.663Z,82.69
2023-01-12T13:33:16.168Z,82.70
2023-01-12T13:35:45.147Z,82.80
2023-01-12T13:38:37.514Z,82.65
2023-01-12T13:41:14.933Z,82.45
2023-01-12T13:43:57.197Z,82.13
2023-01-12T13:46:47.532Z,82.12
2023-01-12T13:49:24.593Z,82.12
2023-01-12T13:52:00.051Z,82.10
2023-01-12T13:54:29.269Z,82.21
2023-01-12T13:57:03.728Z,82.08
2023-01-12T13:59:33.062Z,81.91
2023-01-12T14:02:01.271Z,81.99
2023-01-12T14:04:41.795Z,81.91
2023-01-12T14:07:31.913Z,81.81
2023-01-12T14:10:21.525Z,81.70
2023-01-12T14:13:03.686Z,81.69
2023-01-12T14:15:56.365Z,81.56
2023-01-12T14:18:27.247Z,81.47
2023-01-12T14:20:56.459Z,81.42
2023-01-12T14:23:24.412Z,81.38
2023-01-12T14:26:11.840Z,81.55
2023-01-12T14:28:45.438Z,81.48
2023-01-12T14:31:26.754Z,81.54
2023-01-12T14:34:00.937Z,81.63
2023-01-12T14:36:41.428Z,81.73
2023-01-12T14:39:17.114Z,81.79
2023-01-12T14:42:11.990Z,81.81
2023-01-12T14:45:09.416Z,81.78
2023-01-12T14:47:38.806Z,81.79
2023-01-12T14:50:12.822Z,81.82
2023-01-12T14:52:43.158Z,81.92
2023-01-12T14:55:41.726Z,81.93
2023-01-12T14:58:21.126Z,81.99
2023-01-12T15:00:49.463Z,82.08
2023-01-12T15:03:35.183Z,82.18
2023-01-12T15:06:05.177Z,82.08
2023-01-12T15:08:34.561Z,82.16
2023-01-12T15:11:08.191Z,82.14
2023-01-12T15:13:37.694Z,82.22
2023-01-12T15:16:25.039Z,82.25
2023-01-12T15:19:11.897Z,82.33
2023-01-12T15:22:02.507Z,82.34
2023-01-12T15:24:52.929Z,82.55
2023-01-12T15:27:23.631Z,82.63
2023-01-12T15:29:51.777Z,82.60
2023-01-12T15:32:47.330Z,82.70
2023-01-12T15:35:24.821Z,82.76
2023-01-12T15:37:55.366Z,82.72
2023-01-12T15:40:25.197Z,83.18
2023-01-12T15:42:53.849Z,83.12
2023-01-12T15:45:37.482Z,83.20
2023-01-12T15:48:06.604Z,83.18
2023-01-12T15:50:38.001Z,83.17
2023-01-12T15:53:20.276Z,83.42
2023-01-12T15:55:49.017Z,83.58
2023-01-12T15:58:17.602Z,83.51
2023-01-12T16:00:45.850Z,83.46
2023-01-12T16:03:34.583Z,83.39
2023-01-12T16:06:02.214Z,83.35
2023-01-12T16:08:30.106Z,83.35
2023-01-12T16:11:09.775Z,83.44
2023-01-12T16:13:38.511Z,83.58
2023-01-12T16:16:08.354Z,83.57
2023-01-12T16:18:36.515Z,83.52
2023-01-12T16:21:04.617Z,83.56
2023-01-12T16:23:33.051Z,83.18
2023-01-12T16:26:01.928Z,83.00
2023-01-12T16:28:29.906Z,83.12
2023-01-12T16:30:58.462Z,83.25
2023-01-12T16:33:26.589Z,83.41
2023-01-12T16:35:56.257Z,83.38
2023-01-12T16:38:24.438Z,83.61
2023-01-12T16:40:52.509Z,83.58
2023-01-12T16:43:22.731Z,83.61
2023-01-12T16:45:51.899Z,83.72
2023-01-12T16:48:19.974Z,83.75
2023-01-12T16:50:47.973Z,83.85
2023-01-12T16:53:15.889Z,83.85
2023-01-12T16:55:43.910Z,83.77
2023-01-12T16:58:11.880Z,83.72
2023-01-12T17:00:40.046Z,83.59
2023-01-12T17:03:08.388Z,83.76
2023-01-12T17:05:41.848Z,83.91
2023-01-12T17:08:10.015Z,83.91
2023-01-12T17:10:38.040Z,83.81
2023-01-12T17:13:06.120Z,83.90
2023-01-12T17:15:35.270Z,84.02
2023-01-12T17:18:03.326Z,83.96
2023-01-12T17:20:31.869Z,83.89
2023-01-12T17:23:01.223Z,84.13
2023-01-12T17:25:29.337Z,84.23
2023-01-12T17:27:57.760Z,84.31
2023-01-12T17:30:27.152Z,84.42
2023-01-12T17:32:55.206Z,84.39
2023-01-12T17:35:23.076Z,84.43
2023-01-12T17:37:51.063Z,84.67
2023-01-12T17:40:19.049Z,84.65
2023-01-12T17:43:07.835Z,84.51
2023-01-12T17:45:42.537Z,84.45
2023-01-12T17:48:12.094Z,84.43
2023-01-12T17:50:40.711Z,84.40
2023-01-12T17:53:09.613Z,84.37
2023-01-12T17:55:47.632Z,84.39
2023-01-12T17:58:18.716Z,84.40
2023-01-12T18:00:46.816Z,84.49
2023-01-12T18:03:14.925Z,84.50
2023-01-12T18:05:47.045Z,84.52
2023-01-12T18:08:15.260Z,84.60
2023-01-12T18:10:43.203Z,84.63
2023-01-12T18:13:12.876Z,84.60
2023-01-12T18:15:41.512Z,84.58
2023-01-12T18:18:09.571Z,84.53
2023-01-12T18:20:37.847Z,84.62
2023-01-12T18:23:05.823Z,84.47
2023-01-12T18:25:36.517Z,84.49
2023-01-12T18:28:05.234Z,84.44
2023-01-12T18:30:33.178Z,84.50
2023-01-12T18:33:01.146Z,84.37
2023-01-12T18:35:29.517Z,84.46
2023-01-12T18:37:57.524Z,84.71
2023-01-12T18:40:25.495Z,84.72
2023-01-12T18:42:54.865Z,84.75
2023-01-12T18:45:24.724Z,84.71
2023-01-12T18:48:11.112Z,84.78
2023-01-12T18:50:57.615Z,84.76
2023-01-12T18:53:26.482Z,84.70
2023-01-12T18:56:01.670Z,84.45
2023-01-12T18:58:32.186Z,84.07
2023-01-12T19:01:18.467Z,84.14
2023-01-12T19:03:46.832Z,84.50
2023-01-12T19:06:24.288Z,84.76
2023-01-12T19:09:11.266Z,84.88
2023-01-12T19:11:40.562Z,84.90
2023-01-12T19:14:28.501Z,84.97
2023-01-12T19:17:15.006Z,84.92
2023-01-12T19:19:42.954Z,84.77
2023-01-12T19:22:29.492Z,84.84
2023-01-12T19:25:16.183Z,84.97
2023-01-12T19:28:03.095Z,85.03
2023-01-12T19:30:31.445Z,85.02
2023-01-12T19:33:01.222Z,84.97
2023-01-12T19:35:29.175Z,84.94
2023-01-12T19:37:57.149Z,84.97
2023-01-12T19:40:33.933Z,84.99
2023-01-12T19:43:19.487Z,84.89
2023-01-12T19:45:53.904Z,85.00
2023-01-12T19:48:24.244Z,84.97
2023-01-12T19:50:53.777Z,84.79
2023-01-12T19:53:26.129Z,84.95
2023-01-12T19:55:54.773Z,85.00
2023-01-12T19:58:27.473Z,85.16
2023-01-12T20:00:56.259Z,85.20
2023-01-12T20:03:25.179Z,85.21
2023-01-12T20:05:53.227Z,85.06
2023-01-12T20:08:24.120Z,85.06
2023-01-12T20:10:57.901Z,85.05
2023-01-12T20:13:26.331Z,85.02
2023-01-12T20:15:56.823Z,85.03
2023-01-12T20:18:25.101Z,85.11
2023-01-12T20:20:55.397Z,85.18
2023-01-12T20:23:23.350Z,85.13
2023-01-12T20:25:51.317Z,85.20
2023-01-12T20:28:19.388Z,85.16
2023-01-12T20:30:47.261Z,84.98
2023-01-12T20:33:15.822Z,84.99
2023-01-12T20:35:46.392Z,85.13
2023-01-12T20:38:16.516Z,85.20
2023-01-12T20:40:45.964Z,85.14
2023-01-12T20:43:13.916Z,85.09
2023-01-12T20:45:43.059Z,85.15
2023-01-12T20:48:15.542Z,85.13
2023-01-12T20:50:45.596Z,85.12
2023-01-12T20:53:14.939Z,84.98
2023-01-12T20:55:50.549Z,85.02
2023-01-12T20:58:19.906Z,84.84
2023-01-12T21:00:49.245Z,84.80
2023-01-12T21:03:17.644Z,84.87
2023-01-12T21:05:47.603Z,84.92
2023-01-12T21:08:17.354Z,84.90
2023-01-12T21:10:51.842Z,84.96
2023-01-12T21:13:20.969Z,84.91
2023-01-12T21:15:49.212Z,84.80
2023-01-12T21:18:17.093Z,84.98
2023-01-12T21:20:45.147Z,84.92
2023-01-12T21:23:13.732Z,85.00
2023-01-12T21:25:43.140Z,84.94
2023-01-12T21:28:11.613Z,84.94
2023-01-12T21:30:40.962Z,85.06
2023-01-12T21:33:10.630Z,84.86
2023-01-12T21:35:38.696Z,84.83
2023-01-12T21:38:06.784Z,84.82
2023-01-12T21:40:35.179Z,84.83
2023-01-12T21:43:09.261Z,84.93
2023-01-12T21:45:43.118Z,84.92
2023-01-12T21:48:12.540Z,84.98
2023-01-12T21:50:40.428Z,85.04
2023-01-12T21:53:09.475Z,85.07
2023-01-12T21:55:37.357Z,85.01
2023-01-12T21:58:05.477Z,85.10
2023-01-12T22:00:33.450Z,85.22
2023-01-12T22:03:01.367Z,85.28
2023-01-12T22:05:29.591Z,85.42
2023-01-12T22:07:57.969Z,85.72
2023-01-12T22:10:30.646Z,85.73
2023-01-12T22:13:02.952Z,85.55
2023-01-12T22:15:30.925Z,85.58
2023-01-12T22:17:59.828Z,85.66
2023-01-12T22:20:28.218Z,85.51
2023-01-12T22:22:56.493Z,85.50
2023-01-12T22:25:25.049Z,85.24
2023-01-12T22:27:54.616Z,84.91
2023-01-12T22:30:24.172Z,85.02
2023-01-12T22:32:54.903Z,85.12
2023-01-12T22:35:23.451Z,85.19
2023-01-12T22:37:51.303Z,85.29
2023-01-12T22:40:19.323Z,85.28
2023-01-12T22:43:05.876Z,85.26
2023-01-12T22:45:34.386Z,85.31
2023-01-12T22:48:02.764Z,85.26
2023-01-12T22:50:30.723Z,85.28
2023-01-12T22:52:58.692Z,85.31
2023-01-12T22:55:26.589Z,85.28
2023-01-12T22:57:54.606Z,85.29
2023-01-12T23:00:22.636Z,85.23
2023-01-12T23:03:02.971Z,85.24
2023-01-12T23:05:35.971Z,85.30
2023-01-12T23:08:06.095Z,85.22
2023-01-12T23:10:34.754Z,85.25
2023-01-12T23:13:15.845Z,85.27
2023-01-12T23:15:47.359Z,85.39
2023-01-12T23:18:19.141Z,85.35
2023-01-12T23:20:48.174Z,85.33
2023-01-12T23:23:20.244Z,85.34
2023-01-12T23:25:48.374Z,85.21
2023-01-12T23:28:16.908Z,85.22
2023-01-12T23:30:45.051Z,85.38
2023-01-12T23:33:13.099Z,85.40
2023-01-12T23:35:42.099Z,85.56
2023-01-12T23:38:16.260Z,85.42
2023-01-12T23:40:44.337Z,85.45
2023-01-12T23:43:12.505Z,85.49
2023-01-12T23:45:40.442Z,85.50
2023-01-12T23:48:08.396Z,85.45
2023-01-12T23:50:36.469Z,85.40
2023-01-12T23:53:04.887Z,85.46
2023-01-12T23:55:32.877Z,85.48
2023-01-12T23:58:02.316Z,85.46
